Hlavní strana
METAR-TAF:

METAR-TAF

Letiště :

Kuej-lin, Čína

zeměpisná šířka: 25-20N, zeměpisná délka: 110-18E, výška: 166 m

Aktuální stav počasí

Zpráva byla vytvořena před 29 minutami, v 16:00 UTC
vítr z různých směrů 2 kt
Teplota 18°C
Vlhkost vzduchu 94%
Tlak 1015 hPa
Viditelnost: 2100 m
Skoro jasno ve výšce 400 ft
Polojasno ve výšce 1500 ft
Zataženo ve výšce 3000 ft
slabý déšť, kouřmo

METAR: ZGKL 251600Z VRB01MPS 2100 -RA BR FEW004 SCT015 OVC030 18/17 Q1015 NOSIG

Čas: 00:29 (16:29 UTC)

Předpověď počasí

Zpráva byla vytvořena před 7 hodinami a 20 minutami, v 09:09 UTC
Předpověď platná od 25 v 12 UTC do 26 v 12 UTC
Severovýchodní vítr 6 kt
Viditelnost: 6000 m
Polojasno ve výšce 3000 ft
Zataženo ve výšce 5000 ft

TAF: ZGKL 250909Z 2512/2612 05003MPS 6000 SCT030 OVC050 TX23/2608Z TN16/2521Z

Stav a předpovědi počasí z více než 4 000 letišť (zprávy METAR a TAF).

Červené a žluté tečky na mapě představují dostupné meteorologické stanice.

Když kurzor umístíte na tečku, zobrazí se název stanice.

Pak kliknutím zobrazíte stav a předpověď počasí.

Chcete-li změnit mapu, kliknutím na zelené tlačítko se znaménkem +mapu přiblížíte, kliknutím na zelené tlačítko se znaménkem – mapu oddálíte a kliknutím na zelené šipky přejdete na sousední mapy.


METAR-TAF: